createdAt,value
2023-01-26T03:48:58.658Z,0.20
2023-01-26T03:54:14.128Z,0.30
2023-01-26T04:24:56.303Z,0.30
2023-01-26T04:50:32.147Z,0.40
2023-01-26T06:43:03.929Z,0.70
2023-01-26T06:48:05.746Z,0.70
2023-01-26T06:53:25.713Z,0.70
2023-01-26T06:58:27.535Z,0.70
2023-01-26T07:03:29.363Z,0.70
2023-01-26T07:08:31.554Z,0.70
2023-01-26T07:13:33.552Z,0.70
2023-01-26T07:18:35.413Z,0.70
2023-01-26T07:23:37.269Z,0.70
2023-01-26T07:28:40.249Z,0.80
2023-01-26T07:33:42.294Z,0.80
2023-01-26T07:38:44.146Z,0.80
2023-01-26T07:43:46.091Z,0.80
2023-01-26T07:48:47.979Z,0.80
2023-01-26T07:53:50.120Z,0.80
2023-01-26T07:58:52.911Z,0.80
2023-01-26T08:03:55.128Z,0.90
2023-01-26T08:08:57.786Z,0.90
2023-01-26T08:13:59.590Z,0.90
2023-01-26T08:19:01.561Z,0.90
2023-01-26T08:24:03.657Z,0.90
2023-01-26T08:29:05.539Z,0.90
2023-01-26T08:34:07.353Z,0.90
2023-01-26T08:39:09.231Z,1.00
2023-01-26T08:44:11.140Z,1.00
2023-01-26T08:49:13.233Z,1.00
2023-01-26T08:54:15.028Z,1.10
2023-01-26T08:59:16.853Z,1.10
2023-01-26T09:04:18.673Z,1.20
2023-01-26T09:09:20.537Z,1.20
2023-01-26T09:14:22.698Z,1.20
2023-01-26T09:19:24.649Z,1.30
2023-01-26T09:24:26.779Z,1.30
2023-01-26T09:29:28.597Z,1.30
2023-01-26T09:34:30.490Z,1.40
2023-01-26T09:39:32.303Z,1.40
2023-01-26T09:44:40.723Z,1.50
2023-01-26T09:50:00.698Z,1.50
2023-01-26T09:55:05.633Z,1.60
2023-01-26T10:00:11.759Z,1.70
2023-01-26T10:05:19.709Z,1.70
2023-01-26T10:10:29.720Z,1.80
2023-01-26T10:15:38.986Z,1.90
2023-01-26T10:20:44.287Z,1.90
2023-01-26T10:25:47.073Z,2.00
2023-01-26T10:30:49.501Z,2.20
2023-01-26T10:35:51.580Z,2.30
2023-01-26T10:40:53.509Z,2.50
2023-01-26T10:45:55.346Z,2.70
2023-01-26T10:51:14.790Z,2.90
2023-01-26T10:56:17.248Z,3.10
2023-01-26T11:01:22.793Z,3.20
2023-01-26T11:06:29.085Z,3.40
2023-01-26T11:11:30.899Z,3.60
2023-01-26T11:16:32.843Z,3.70
2023-01-26T11:21:46.898Z,3.90
2023-01-26T11:27:22.895Z,4.00
2023-01-26T11:32:37.586Z,4.10
2023-01-26T11:37:47.822Z,4.20
2023-01-26T11:43:27.599Z,4.40
2023-01-26T11:48:42.597Z,4.60
2023-01-26T11:54:19.571Z,4.70
2023-01-26T11:59:36.839Z,4.90
2023-01-26T12:04:45.413Z,5.10
2023-01-26T12:09:49.089Z,5.30
2023-01-26T12:15:00.197Z,5.40
2023-01-26T12:20:15.247Z,5.50
2023-01-26T12:25:39.906Z,5.70
2023-01-26T12:30:50.048Z,5.80
2023-01-26T12:36:04.141Z,5.90
2023-01-26T12:41:41.645Z,6.00
2023-01-26T12:46:48.072Z,6.10
2023-01-26T12:51:56.977Z,6.10
2023-01-26T12:57:00.310Z,6.10
2023-01-26T13:02:17.829Z,6.20
2023-01-26T13:07:32.589Z,6.30
2023-01-26T13:12:53.840Z,6.30
2023-01-26T13:17:56.961Z,6.40
2023-01-26T13:22:59.041Z,6.50
2023-01-26T13:28:03.440Z,6.50
2023-01-26T13:33:19.103Z,6.50
2023-01-26T13:38:48.214Z,6.40
2023-01-26T13:43:53.706Z,6.40
2023-01-26T13:48:56.817Z,6.40
2023-01-26T13:54:05.407Z,6.40
2023-01-26T13:59:17.453Z,6.40
2023-01-26T14:04:31.290Z,6.40
2023-01-26T14:09:40.233Z,6.40
2023-01-26T14:14:48.151Z,6.50
2023-01-26T14:19:50.273Z,6.50
2023-01-26T14:24:53.892Z,6.50
2023-01-26T14:29:56.164Z,6.50
2023-01-26T14:34:59.898Z,6.40
2023-01-26T14:40:24.734Z,6.40
2023-01-26T14:45:31.574Z,6.40
2023-01-26T14:50:35.001Z,6.40
2023-01-26T14:55:36.857Z,6.40
2023-01-26T15:00:38.766Z,6.40
2023-01-26T15:05:42.319Z,6.40
2023-01-26T15:11:17.352Z,6.40
2023-01-26T15:16:24.502Z,6.40
2023-01-26T15:21:40.007Z,6.40
2023-01-26T15:26:42.725Z,6.40
2023-01-26T15:31:44.906Z,6.40
2023-01-26T15:36:48.915Z,6.40
2023-01-26T15:42:28.890Z,6.40
2023-01-26T15:47:31.015Z,6.30
2023-01-26T15:52:32.862Z,6.30
2023-01-26T15:57:34.661Z,6.30
2023-01-26T16:02:36.451Z,6.30
2023-01-26T16:07:38.285Z,6.20
2023-01-26T16:12:40.216Z,6.20
2023-01-26T16:17:42.095Z,6.20
2023-01-26T16:22:43.988Z,6.20
2023-01-26T16:27:45.802Z,6.20
2023-01-26T16:32:47.801Z,6.10
2023-01-26T16:37:49.844Z,6.10
2023-01-26T16:42:52.925Z,6.10
2023-01-26T16:47:56.744Z,6.10
2023-01-26T16:52:58.626Z,6.10
2023-01-26T16:58:00.507Z,6.10
2023-01-26T17:03:02.338Z,6.10
2023-01-26T17:08:04.389Z,6.10
2023-01-26T17:13:07.349Z,6.00
2023-01-26T17:18:12.679Z,6.00
2023-01-26T17:23:14.502Z,5.90
2023-01-26T17:28:16.351Z,5.90
2023-01-26T17:33:18.278Z,5.80
2023-01-26T17:38:20.154Z,5.80
2023-01-26T17:43:22.144Z,5.70
2023-01-26T17:48:23.961Z,5.70
2023-01-26T17:53:27.954Z,5.60
2023-01-26T17:58:29.943Z,5.60
2023-01-26T18:03:32.169Z,5.50
2023-01-26T18:08:34.220Z,5.50
2023-01-26T18:13:36.575Z,5.50
2023-01-26T18:18:38.505Z,5.50
2023-01-26T18:23:40.396Z,5.50
2023-01-26T18:28:42.880Z,5.50
2023-01-26T18:33:44.855Z,5.50
2023-01-26T18:38:52.059Z,5.50
2023-01-26T18:43:55.333Z,5.50
